Time;durP1;ratioP1;P1;durP2;ratioP2;P2;SDS_P1;SDS_P2;PMS_P1;PMS_P2;Temp;Humidity;BMP_temperature;BMP_pressure;BME280_temperature;BME280_humidity;BME280_pressure;Samples;Min_cycle;Max_cycle;Signal;HPM_P1;HPM_P2
2022/10/21 00:01:10;;;;;;;20.75;10.20;;;;;;;9.76;60.73;96062.16;5071500;28;20051;-76
2022/10/21 00:03:36;;;;;;;18.88;8.65;;;;;;;9.24;60.35;95983.91;5071208;28;20088;-77
2022/10/21 00:06:02;;;;;;;20.88;10.38;;;;;;;10.26;60.48;96144.94;5071612;28;20039;-76
2022/10/21 00:08:27;;;;;;;17.77;10.23;;;;;;;9.87;60.30;96088.50;5089662;28;20051;-76
2022/10/21 00:10:56;;;;;;;16.15;8.77;;;;;;;9.80;60.64;96085.25;5052970;28;20052;-76
2022/10/21 00:13:22;;;;;;;20.65;9.85;;;;;;;10.12;60.44;96138.38;5069061;28;20058;-76
2022/10/21 00:16:03;;;;;;;17.92;9.07;;;;;;;10.09;60.22;96138.84;5051694;28;20037;-76
2022/10/21 00:18:30;;;;;;;20.77;10.07;;;;;;;9.91;60.61;96132.03;5068882;28;20032;-76
2022/10/21 00:20:56;;;;;;;18.40;9.43;;;;;;;9.88;61.40;96127.22;5051510;28;20048;-76
2022/10/21 00:23:21;;;;;;;22.35;10.25;;;;;;;9.65;61.38;96107.03;5069316;28;20052;-76
2022/10/21 00:25:47;;;;;;;13.85;9.80;;;;;;;9.71;60.91;96126.44;5069152;28;20048;-76
2022/10/21 00:28:13;;;;;;;15.40;9.18;;;;;;;9.77;61.48;96127.31;5051112;28;20048;-76
2022/10/21 00:30:45;;;;;;;20.98;11.00;;;;;;;9.39;61.47;96075.16;5051322;28;20102;-76
2022/10/21 00:33:13;;;;;;;22.13;13.45;;;;;;;9.74;61.90;96141.84;5068198;28;20059;-76
2022/10/21 00:35:39;;;;;;;25.75;14.20;;;;;;;9.55;61.66;96111.38;5068930;28;20037;-76
2022/10/21 00:38:04;;;;;;;28.23;14.52;;;;;;;9.70;60.82;96135.44;5069316;28;20048;-76
2022/10/21 00:40:30;;;;;;;25.05;14.73;;;;;;;9.69;61.20;96133.81;5050799;28;20050;-76
2022/10/21 00:42:55;;;;;;;31.40;15.10;;;;;;;9.41;60.83;96094.25;5068289;28;20131;-76
2022/10/21 00:45:24;;;;;;;27.20;15.57;;;;;;;9.56;61.53;96136.81;5036968;28;20119;-76
2022/10/21 00:48:07;;;;;;;25.30;14.88;;;;;;;9.56;61.34;96131.53;5087469;28;20039;-76
2022/10/21 00:50:40;;;;;;;28.83;13.55;;;;;;;9.54;61.99;96128.31;5070938;28;20043;-77
2022/10/21 00:53:10;;;;;;;20.42;12.55;;;;;;;9.51;61.32;96121.69;5089048;28;20132;-77
2022/10/21 00:55:42;;;;;;;37.10;13.00;;;;;;;9.15;61.76;96061.34;5089054;28;20421;-77
2022/10/21 00:58:09;;;;;;;22.00;12.65;;;;;;;9.55;61.23;96119.34;5070032;28;20077;-77
2022/10/21 01:00:34;;;;;;;24.80;13.10;;;;;;;9.23;61.90;96067.00;5088805;28;20051;-77
2022/10/21 01:03:00;;;;;;;22.45;13.80;;;;;;;9.54;61.37;96120.38;5089202;28;20463;-77
2022/10/21 01:05:26;;;;;;;24.23;13.65;;;;;;;9.04;61.86;96043.69;5069534;28;20147;-77
2022/10/21 01:07:52;;;;;;;30.23;13.85;;;;;;;9.18;61.44;96064.28;5071394;28;20044;-77
2022/10/21 01:10:18;;;;;;;25.67;14.23;;;;;;;9.06;61.27;96044.25;5088927;28;20044;-77
2022/10/21 01:13:14;;;;;;;21.40;14.10;;;;;;;9.47;61.41;96112.59;5089241;28;20040;-77
2022/10/21 01:16:20;;;;;;;31.13;14.27;;;;;;;9.49;61.56;96120.31;5070871;28;20044;-77
2022/10/21 01:19:01;;;;;;;24.92;12.35;;;;;;;9.47;61.84;96119.75;5089013;28;20421;-77
2022/10/21 01:21:57;;;;;;;22.88;13.23;;;;;;;9.43;61.86;96113.34;5070835;28;20135;-77
2022/10/21 01:24:51;;;;;;;22.48;12.95;;;;;;;9.07;62.18;96064.38;5054551;28;20048;-77
2022/10/21 01:27:40;;;;;;;19.35;12.68;;;;;;;9.38;61.97;96122.03;5088505;28;20482;-77
2022/10/21 01:30:11;;;;;;;25.10;12.32;;;;;;;9.29;61.85;96108.41;5071237;28;20060;-77
2022/10/21 01:32:46;;;;;;;20.17;11.68;;;;;;;9.37;62.12;96125.72;5066239;28;20052;-77
2022/10/21 01:35:27;;;;;;;25.92;12.90;;;;;;;8.79;61.82;96044.91;5067693;28;20063;-77
2022/10/21 01:38:04;;;;;;;23.98;11.15;;;;;;;9.34;62.52;96125.38;5071060;28;20097;-77
2022/10/21 01:40:48;;;;;;;22.77;11.88;;;;;;;9.22;61.65;96101.66;5072110;28;20052;-77
2022/10/21 01:43:35;;;;;;;21.00;12.70;;;;;;;9.04;62.16;96076.25;5054145;28;20043;-77
2022/10/21 01:46:11;;;;;;;19.48;11.70;;;;;;;9.02;61.92;96074.88;5054088;28;20090;-77
2022/10/21 01:48:43;;;;;;;29.08;13.15;;;;;;;8.92;62.33;96080.84;5053884;28;20037;-77
2022/10/21 01:51:11;;;;;;;23.70;12.52;;;;;;;8.82;62.17;96072.72;5071682;28;20066;-77
2022/10/21 01:53:51;;;;;;;21.90;12.35;;;;;;;9.02;61.92;96110.06;5072203;28;20039;-77
2022/10/21 01:56:19;;;;;;;22.02;13.27;;;;;;;8.81;61.79;96073.75;5054295;28;20116;-77
2022/10/21 01:58:46;;;;;;;23.27;13.15;;;;;;;9.05;62.15;96114.09;5053380;28;20036;-77
2022/10/21 02:01:13;;;;;;;26.50;12.98;;;;;;;9.17;62.34;96133.34;5053009;28;20047;-77
2022/10/21 02:03:42;;;;;;;23.85;12.38;;;;;;;8.89;62.08;96094.53;5053630;28;20025;-77
2022/10/21 02:06:08;;;;;;;26.23;13.23;;;;;;;9.13;62.35;96135.66;5056007;28;20037;-77
2022/10/21 02:08:34;;;;;;;23.75;13.20;;;;;;;8.79;62.42;96097.81;5070306;28;20101;-77
2022/10/21 02:11:04;;;;;;;22.70;12.68;;;;;;;8.96;62.45;96120.81;5083493;28;20043;-77
2022/10/21 02:13:34;;;;;;;26.27;13.15;;;;;;;8.89;62.23;96126.28;5091624;28;20028;-77
2022/10/21 02:16:03;;;;;;;33.55;13.80;;;;;;;9.07;62.34;96146.41;5073747;28;20556;-77
2022/10/21 02:18:28;;;;;;;23.27;14.05;;;;;;;9.06;62.25;96145.63;5091747;28;20036;-77
2022/10/21 02:20:58;;;;;;;29.48;14.05;;;;;;;8.85;62.21;96122.50;5058673;28;20479;-77
2022/10/21 02:23:48;;;;;;;25.92;14.15;;;;;;;8.73;62.24;96116.47;5071022;28;20550;-77
2022/10/21 02:26:13;;;;;;;26.42;13.95;;;;;;;8.89;62.21;96150.09;5071043;28;20443;-77
2022/10/21 02:28:39;;;;;;;25.83;13.20;;;;;;;8.67;62.39;96130.66;5052693;28;20110;-76
2022/10/21 02:31:28;;;;;;;25.50;13.02;;;;;;;8.94;61.84;96158.09;5071311;28;20097;-77
2022/10/21 02:34:03;;;;;;;32.83;15.07;;;;;;;8.98;61.50;96153.94;5071026;28;20510;-77
2022/10/21 02:36:43;;;;;;;31.98;14.00;;;;;;;8.96;61.93;96160.50;5071601;28;20055;-77
2022/10/21 02:39:26;;;;;;;35.37;15.47;;;;;;;8.74;62.00;96120.72;5070843;28;20040;-77
2022/10/21 02:41:54;;;;;;;30.20;13.35;;;;;;;8.65;62.13;96120.31;5070508;28;20058;-77
2022/10/21 02:44:20;;;;;;;27.27;14.18;;;;;;;8.88;62.13;96156.41;5052527;28;20041;-77
2022/10/21 02:46:46;;;;;;;23.48;14.18;;;;;;;8.89;62.07;96153.53;5053131;28;20032;-77
2022/10/21 02:49:12;;;;;;;25.90;14.10;;;;;;;8.56;61.97;96113.78;5070538;28;20115;-77
2022/10/21 02:51:38;;;;;;;30.63;14.05;;;;;;;8.52;62.16;96133.84;5070740;28;20555;-76
2022/10/21 02:54:04;;;;;;;30.90;14.25;;;;;;;8.45;61.76;96115.47;5074685;28;20169;-76
2022/10/21 02:56:29;;;;;;;25.58;13.95;;;;;;;8.66;62.22;96158.94;5072476;28;20520;-77
2022/10/21 02:58:55;;;;;;;27.90;14.23;;;;;;;8.32;62.30;96122.88;5059571;28;20044;-77
2022/10/21 03:01:20;;;;;;;26.73;13.20;;;;;;;8.63;62.19;96161.25;5090936;28;20543;-77
2022/10/21 03:03:46;;;;;;;27.88;13.75;;;;;;;8.29;62.04;96102.19;5090547;28;20174;-77
2022/10/21 03:06:11;;;;;;;27.23;13.68;;;;;;;8.21;62.23;96092.78;5090587;28;20036;-77
2022/10/21 03:08:36;;;;;;;29.35;14.48;;;;;;;8.43;62.03;96119.38;5072579;28;20036;-77
2022/10/21 03:11:02;;;;;;;25.58;15.00;;;;;;;8.19;62.17;96126.56;5090234;28;20036;-77
2022/10/21 03:13:28;;;;;;;31.48;16.10;;;;;;;7.65;63.57;96093.50;5090061;28;20039;-77
2022/10/21 03:15:53;;;;;;;30.67;14.57;;;;;;;8.31;63.33;96163.56;5072332;28;20044;-77
2022/10/21 03:18:19;;;;;;;29.27;15.25;;;;;;;8.42;62.57;96163.53;5090260;28;20033;-77
2022/10/21 03:20:47;;;;;;;33.28;15.20;;;;;;;8.37;62.13;96139.66;5090365;28;20035;-77
2022/10/21 03:23:13;;;;;;;29.00;15.63;;;;;;;8.17;62.49;96109.34;5057593;28;20124;-77
2022/10/21 03:25:38;;;;;;;32.35;15.52;;;;;;;8.11;62.24;96103.16;5084457;28;20115;-76
2022/10/21 03:28:04;;;;;;;45.35;16.63;;;;;;;8.56;62.37;96169.31;5090558;28;20047;-76
2022/10/21 03:30:29;;;;;;;31.48;16.20;;;;;;;8.11;62.10;96117.16;5071591;28;20040;-76
2022/10/21 03:32:55;;;;;;;29.25;16.23;;;;;;;8.37;62.21;96152.84;5072122;28;20090;-75
2022/10/21 03:35:20;;;;;;;25.33;15.02;;;;;;;8.53;61.97;96164.53;5089647;28;20110;-75
2022/10/21 03:37:45;;;;;;;24.15;14.35;;;;;;;8.36;62.46;96143.31;5071829;28;20409;-76
2022/10/21 03:40:11;;;;;;;28.10;15.05;;;;;;;8.11;62.16;96117.16;5071490;28;20051;-76
2022/10/21 03:42:36;;;;;;;30.77;16.27;;;;;;;8.37;62.57;96159.97;5064984;28;20032;-76
2022/10/21 03:45:02;;;;;;;33.60;16.17;;;;;;;8.07;62.49;96112.59;5089681;28;20112;-76
2022/10/21 03:47:28;;;;;;;31.20;16.15;;;;;;;8.29;62.52;96142.63;5050427;28;20048;-76
2022/10/21 03:49:53;;;;;;;37.03;16.27;;;;;;;7.88;62.53;96090.03;5088670;28;20119;-76
2022/10/21 03:52:18;;;;;;;32.83;16.77;;;;;;;8.12;62.74;96128.53;5068388;28;20033;-76
2022/10/21 03:54:44;;;;;;;31.92;16.40;;;;;;;8.05;62.58;96128.69;5069165;28;20040;-76
2022/10/21 03:57:09;;;;;;;28.98;15.20;;;;;;;8.12;63.25;96144.41;5051308;28;20437;-76
2022/10/21 03:59:35;;;;;;;39.05;16.88;;;;;;;7.77;63.70;96123.34;5069383;28;20044;-76
2022/10/21 04:02:00;;;;;;;31.27;15.98;;;;;;;7.71;63.51;96105.78;5034207;28;20036;-76
2022/10/21 04:04:26;;;;;;;27.38;15.70;;;;;;;7.97;63.34;96141.44;5051342;28;20155;-76
2022/10/21 04:06:51;;;;;;;29.95;16.40;;;;;;;7.81;63.34;96119.19;5050731;28;20036;-76
2022/10/21 04:09:17;;;;;;;31.65;17.00;;;;;;;8.13;63.51;96186.44;5065526;28;20048;-76
2022/10/21 04:11:42;;;;;;;27.60;17.17;;;;;;;8.13;63.54;96186.44;5041432;28;20101;-76
2022/10/21 04:14:07;;;;;;;37.30;16.92;;;;;;;7.89;63.47;96144.44;5071502;28;20039;-76
2022/10/21 04:16:33;;;;;;;39.33;19.45;;;;;;;8.07;63.66;96176.00;5068473;28;20043;-76
2022/10/21 04:18:59;;;;;;;40.45;17.13;;;;;;;7.70;63.76;96134.03;5048570;28;20048;-76
2022/10/21 04:21:25;;;;;;;37.30;16.85;;;;;;;7.81;63.60;96136.88;5056593;28;20052;-76
2022/10/21 04:23:51;;;;;;;38.67;17.05;;;;;;;7.69;63.75;96121.88;5064385;28;20045;-77
2022/10/21 04:26:16;;;;;;;37.72;18.08;;;;;;;7.78;64.05;96150.56;5055243;28;20105;-76
2022/10/21 04:28:42;;;;;;;36.35;17.23;;;;;;;7.93;63.84;96169.38;5059722;28;20045;-76
2022/10/21 04:31:08;;;;;;;39.42;18.25;;;;;;;7.93;64.11;96172.03;5052688;28;20040;-76
2022/10/21 04:33:33;;;;;;;36.72;17.73;;;;;;;7.53;64.25;96122.59;5041678;28;20084;-75
2022/10/21 04:35:59;;;;;;;38.00;17.08;;;;;;;7.36;64.15;96105.84;5028307;28;20075;-77
2022/10/21 04:38:25;;;;;;;43.58;18.25;;;;;;;7.74;64.39;96168.69;5037784;28;20056;-75
2022/10/21 04:41:00;;;;;;;35.13;18.83;;;;;;;7.79;64.08;96162.72;5059452;28;20041;-76
2022/10/21 04:43:25;;;;;;;50.65;19.60;;;;;;;7.68;64.74;96178.34;5037919;28;20507;-76
2022/10/21 04:45:52;;;;;;;46.85;19.23;;;;;;;7.26;64.62;96114.31;5041592;28;20055;-76
2022/10/21 04:48:17;;;;;;;43.90;21.27;;;;;;;7.40;64.69;96137.84;5060138;28;20048;-76
2022/10/21 04:50:43;;;;;;;55.03;21.60;;;;;;;7.36;65.02;96145.41;5038673;28;20131;-76
2022/10/21 04:53:09;;;;;;;53.50;20.58;;;;;;;7.24;65.08;96112.97;5041012;28;20102;-77
2022/10/21 04:55:37;;;;;;;45.65;19.85;;;;;;;7.31;64.91;96129.47;5037009;28;20045;-77
2022/10/21 04:58:03;;;;;;;38.00;18.90;;;;;;;7.42;65.53;96152.41;5032295;28;20053;-76
2022/10/21 05:00:28;;;;;;;40.40;18.80;;;;;;;6.91;65.31;96066.03;5060938;28;20109;-76
2022/10/21 05:02:54;;;;;;;48.88;20.20;;;;;;;7.21;65.12;96105.50;5060842;28;20523;-77
2022/10/21 05:05:19;;;;;;;43.95;19.70;;;;;;;6.99;65.00;96065.69;5041226;28;20048;-77
2022/10/21 05:07:45;;;;;;;46.15;20.73;;;;;;;7.19;65.14;96097.00;5035398;28;20053;-78
2022/10/21 05:10:10;;;;;;;39.17;19.35;;;;;;;7.72;65.38;96178.69;5056975;28;20674;-78
2022/10/21 05:12:38;;;;;;;41.50;20.52;;;;;;;7.41;65.39;96120.97;5027397;28;20113;-81
2022/10/21 05:15:04;;;;;;;48.00;20.08;;;;;;;6.17;65.38;95931.22;5051483;28;20045;-80
2022/10/21 05:17:30;;;;;;;52.08;20.45;;;;;;;7.33;65.29;96112.38;5045159;28;20306;-77
2022/10/21 05:19:55;;;;;;;41.20;20.08;;;;;;;7.46;65.35;96134.28;5028310;28;20145;-77
2022/10/21 05:22:20;;;;;;;47.17;20.90;;;;;;;7.57;65.59;96149.31;5036727;28;20055;-77
2022/10/21 05:24:46;;;;;;;48.92;20.52;;;;;;;7.39;65.57;96123.06;5055133;28;20155;-76
2022/10/21 05:27:11;;;;;;;46.25;21.15;;;;;;;7.57;65.69;96151.94;5043660;28;20101;-77
2022/10/21 05:29:36;;;;;;;49.35;20.88;;;;;;;7.33;65.85;96103.63;5067841;28;20040;-77
2022/10/21 05:32:02;;;;;;;36.90;19.35;;;;;;;7.39;65.96;96109.84;5032025;28;20056;-78
2022/10/21 05:34:27;;;;;;;35.83;19.67;;;;;;;7.37;65.64;96096.88;5039104;28;20085;-77
2022/10/21 05:36:53;;;;;;;43.17;20.42;;;;;;;7.95;65.81;96183.94;5036719;28;20521;-77
2022/10/21 05:39:18;;;;;;;43.90;20.80;;;;;;;7.86;65.40;96172.13;5038456;28;20052;-78
2022/10/21 05:41:44;;;;;;;32.25;19.80;;;;;;;7.78;65.46;96147.94;5035736;28;20040;-78
2022/10/21 05:44:09;;;;;;;36.05;19.95;;;;;;;7.83;65.49;96153.31;5039760;28;20090;-77
2022/10/21 05:46:35;;;;;;;46.25;21.25;;;;;;;7.91;65.47;96164.31;5058669;28;20123;-77
2022/10/21 05:49:00;;;;;;;39.85;19.58;;;;;;;8.15;65.43;96188.84;5023684;28;20152;-76
2022/10/21 05:51:27;;;;;;;48.22;20.77;;;;;;;8.26;65.55;96200.41;5032646;28;20041;-77
2022/10/21 05:53:53;;;;;;;42.90;20.75;;;;;;;8.11;65.75;96180.59;5038322;28;20043;-77
2022/10/21 05:56:19;;;;;;;33.45;17.58;;;;;;;8.02;65.46;96157.38;5040690;28;20446;-77
2022/10/21 05:58:44;;;;;;;35.75;18.35;;;;;;;8.38;65.08;96207.34;5060147;28;20052;-78
2022/10/21 06:01:10;;;;;;;42.47;18.85;;;;;;;8.34;65.19;96195.59;5038354;28;20056;-77
2022/10/21 06:03:42;;;;;;;39.50;18.50;;;;;;;8.04;65.24;96136.84;5033738;28;20048;-77
2022/10/21 06:06:08;;;;;;;29.67;16.33;;;;;;;8.18;66.19;96169.88;5051247;28;20051;-77
2022/10/21 06:08:35;;;;;;;37.17;17.67;;;;;;;8.60;65.71;96222.53;5045887;28;20040;-79
2022/10/21 06:11:01;;;;;;;35.35;17.33;;;;;;;8.60;66.08;96226.00;5049200;28;20040;-78
2022/10/21 06:13:26;;;;;;;39.58;19.10;;;;;;;8.39;65.84;96181.72;5042804;28;20518;-77
2022/10/21 06:15:52;;;;;;;46.65;17.95;;;;;;;8.74;65.90;96232.59;5023913;28;20044;-77
2022/10/21 06:18:17;;;;;;;38.20;19.08;;;;;;;8.56;65.64;96203.69;5061308;28;20040;-77
2022/10/21 06:20:42;;;;;;;39.85;19.60;;;;;;;8.83;65.53;96238.34;5042434;28;20048;-78
2022/10/21 06:23:11;;;;;;;46.03;20.33;;;;;;;8.64;65.79;96218.38;5041521;28;20872;-78
2022/10/21 06:25:36;;;;;;;48.28;22.58;;;;;;;8.38;65.99;96172.16;5041197;28;20040;-78
2022/10/21 06:28:02;;;;;;;42.00;20.80;;;;;;;8.42;65.95;96152.13;5052192;28;20044;-78
2022/10/21 06:30:27;;;;;;;39.70;22.30;;;;;;;8.88;65.67;96225.19;5040924;28;20059;-78
2022/10/21 06:32:53;;;;;;;44.47;21.63;;;;;;;8.78;65.41;96204.63;5059212;28;20497;-77
2022/10/21 06:35:18;;;;;;;39.63;21.15;;;;;;;9.10;65.41;96246.47;5043603;28;20036;-77
2022/10/21 06:37:44;;;;;;;44.67;20.75;;;;;;;8.67;65.46;96186.19;5041745;28;20068;-78
2022/10/21 06:40:11;;;;;;;39.65;19.05;;;;;;;9.09;65.62;96252.81;5060491;28;20043;-77
2022/10/21 06:42:36;;;;;;;29.50;16.92;;;;;;;9.19;65.61;96251.16;5040968;28;21857;-78
2022/10/21 06:45:01;;;;;;;34.10;16.10;;;;;;;9.02;65.53;96210.63;5038801;28;20127;-78
2022/10/21 06:47:27;;;;;;;33.75;17.90;;;;;;;9.13;65.51;96246.81;5057955;28;20105;-78
2022/10/21 06:49:52;;;;;;;35.03;15.10;;;;;;;8.42;65.50;96113.28;5058853;28;20036;-77
2022/10/21 06:52:18;;;;;;;29.88;14.73;;;;;;;9.11;65.37;96225.06;5027519;28;20141;-82
2022/10/21 06:54:43;;;;;;;31.13;14.27;;;;;;;9.35;65.05;96248.78;5051028;28;20033;-77
2022/10/21 06:57:09;;;;;;;26.95;14.40;;;;;;;8.21;65.53;96076.94;5031146;28;20589;-79
2022/10/21 06:59:34;;;;;;;23.98;13.48;;;;;;;9.12;65.90;96229.34;5062716;28;20149;-78
2022/10/21 07:01:59;;;;;;;35.10;16.13;;;;;;;9.10;65.96;96210.22;5040003;28;20052;-78
2022/10/21 07:04:25;;;;;;;33.38;16.80;;;;;;;9.26;65.83;96240.41;5039261;28;20044;-78
2022/10/21 07:06:50;;;;;;;33.78;15.15;;;;;;;9.19;65.59;96210.66;5032823;28;20033;-76
2022/10/21 07:09:16;;;;;;;32.20;16.10;;;;;;;9.51;65.61;96251.44;5057924;28;20048;-82
2022/10/21 07:11:41;;;;;;;31.58;14.88;;;;;;;9.34;66.06;96223.34;5024558;28;20029;-77
2022/10/21 07:14:07;;;;;;;38.67;15.63;;;;;;;8.93;65.73;96153.84;5030496;28;20039;-77
2022/10/21 07:16:35;;;;;;;26.70;14.45;;;;;;;9.60;65.90;96257.13;5032035;28;20047;-76
2022/10/21 07:19:01;;;;;;;31.15;16.00;;;;;;;9.64;66.13;96248.47;5058922;28;20059;-78
2022/10/21 07:21:29;;;;;;;29.77;15.25;;;;;;;9.26;66.07;96190.13;5057645;28;20127;-77
2022/10/21 07:23:56;;;;;;;34.28;15.45;;;;;;;9.37;65.72;96197.19;5039722;28;20161;-77
2022/10/21 07:26:23;;;;;;;28.92;15.18;;;;;;;9.25;66.57;96186.66;5043971;28;20044;-77
2022/10/21 07:28:50;;;;;;;26.77;15.38;;;;;;;9.67;66.37;96261.22;5038094;28;20766;-78
2022/10/21 07:31:18;;;;;;;28.35;14.38;;;;;;;9.56;65.86;96232.16;5051361;28;20467;-77
2022/10/21 07:33:43;;;;;;;36.33;16.80;;;;;;;9.60;66.12;96242.06;5055955;28;20740;-77
2022/10/21 07:36:21;;;;;;;27.75;16.10;;;;;;;9.72;65.94;96233.19;5044355;28;20114;-77
2022/10/21 07:38:48;;;;;;;30.88;15.50;;;;;;;9.99;65.52;96245.53;5045525;28;20045;-77
2022/10/21 07:41:20;;;;;;;33.88;16.50;;;;;;;9.89;65.96;96250.69;5031141;28;20555;-77
2022/10/21 07:43:45;;;;;;;29.52;16.98;;;;;;;9.88;66.16;96249.09;5038863;28;20155;-76
2022/10/21 07:46:11;;;;;;;31.98;17.65;;;;;;;9.98;66.07;96249.25;5051857;28;20028;-76
2022/10/21 07:48:36;;;;;;;31.65;17.00;;;;;;;9.77;65.99;96199.63;5035926;28;20072;-76
2022/10/21 07:51:09;;;;;;;31.38;16.90;;;;;;;9.89;65.94;96197.72;5067675;28;20832;-77
2022/10/21 07:53:35;;;;;;;30.95;16.65;;;;;;;9.96;65.54;96202.81;5045073;28;20045;-77
2022/10/21 07:56:02;;;;;;;37.85;16.98;;;;;;;10.27;65.29;96244.63;5014898;28;20118;-79
2022/10/21 07:58:28;;;;;;;31.80;16.60;;;;;;;9.78;65.61;96161.50;5033476;28;20041;-77
2022/10/21 08:00:57;;;;;;;36.65;15.68;;;;;;;10.34;65.42;96244.44;5047206;28;20060;-79
2022/10/21 08:03:23;;;;;;;36.33;16.83;;;;;;;10.22;65.30;96207.44;5051730;28;20052;-79
2022/10/21 08:05:49;;;;;;;40.20;17.48;;;;;;;10.40;65.84;96230.19;5038906;28;20136;-79
2022/10/21 08:08:15;;;;;;;35.97;15.88;;;;;;;9.90;66.06;96150.81;5052181;28;20102;-79
2022/10/21 08:10:41;;;;;;;29.50;16.60;;;;;;;9.86;66.10;96133.78;5039484;28;20047;-78
2022/10/21 08:13:06;;;;;;;34.63;17.08;;;;;;;9.97;65.37;96146.94;5036519;28;20066;-78
2022/10/21 08:15:32;;;;;;;37.55;17.95;;;;;;;10.32;65.47;96193.50;5055108;28;20119;-78
2022/10/21 08:17:57;;;;;;;39.17;18.73;;;;;;;10.36;66.60;96214.00;5029031;28;20036;-78
2022/10/21 08:20:23;;;;;;;37.30;19.48;;;;;;;10.54;65.57;96218.16;5050815;28;20044;-80
2022/10/21 08:22:48;;;;;;;37.55;19.02;;;;;;;10.39;66.25;96191.47;4939876;28;20042;-78
2022/10/21 08:25:15;;;;;;;38.88;19.27;;;;;;;10.24;66.36;96151.53;4996157;28;20069;-79
2022/10/21 08:27:41;;;;;;;47.72;20.40;;;;;;;10.58;65.57;96202.56;4992641;28;20589;-78
2022/10/21 08:30:07;;;;;;;40.00;18.80;;;;;;;10.52;65.61;96199.06;4996651;28;20041;-78
2022/10/21 08:32:32;;;;;;;42.88;18.95;;;;;;;10.70;65.87;96227.91;4978868;28;20465;-78
2022/10/21 08:34:58;;;;;;;37.20;18.73;;;;;;;10.78;64.90;96234.63;4996449;28;20711;-77
2022/10/21 08:37:23;;;;;;;34.58;17.63;;;;;;;10.75;65.79;96224.53;4993423;28;20038;-78
2022/10/21 08:39:49;;;;;;;33.22;18.92;;;;;;;10.74;66.19;96221.06;4999455;28;20053;-78
2022/10/21 08:42:16;;;;;;;35.72;19.42;;;;;;;10.89;65.75;96227.59;4994542;28;20051;-80
2022/10/21 08:44:48;;;;;;;35.17;18.92;;;;;;;10.97;66.22;96220.00;4995108;28;20129;-80
2022/10/21 08:47:16;;;;;;;31.40;18.15;;;;;;;11.09;65.06;96207.34;4996542;28;20053;-78
2022/10/21 08:49:56;;;;;;;29.45;17.80;;;;;;;9.91;65.33;96043.78;4993373;28;20034;-77
2022/10/21 08:52:37;;;;;;;36.55;19.40;;;;;;;10.65;65.60;96161.53;4989797;28;20046;-77
2022/10/21 08:55:13;;;;;;;37.43;20.30;;;;;;;10.86;64.92;96172.34;4994423;28;20117;-78
2022/10/21 08:57:38;;;;;;;36.47;19.65;;;;;;;11.10;65.43;96206.31;4982121;28;20097;-78
2022/10/21 09:00:14;;;;;;;36.17;19.25;;;;;;;10.77;65.72;96143.63;4981617;28;20041;-79
2022/10/21 09:02:57;;;;;;;38.53;20.05;;;;;;;11.24;65.63;96193.41;5000466;28;20041;-78
2022/10/21 09:05:23;;;;;;;32.35;17.80;;;;;;;11.25;64.60;96202.97;4996999;28;20131;-79
2022/10/21 09:07:57;;;;;;;32.53;18.83;;;;;;;11.37;64.29;96202.81;4980682;28;20128;-78
2022/10/21 09:10:52;;;;;;;35.63;20.05;;;;;;;11.43;64.36;96193.84;4996025;28;20037;-80
2022/10/21 09:13:36;;;;;;;35.60;17.52;;;;;;;11.49;64.29;96187.50;4998220;28;20042;-78
2022/10/21 09:16:04;;;;;;;34.40;17.85;;;;;;;11.48;63.77;96177.94;4981242;28;20116;-78
2022/10/21 09:18:42;;;;;;;28.88;17.38;;;;;;;11.59;63.16;96175.09;4991171;28;20056;-79
2022/10/21 09:21:36;;;;;;;33.45;18.25;;;;;;;11.49;62.59;96145.00;4979874;28;20073;-78
2022/10/21 09:24:06;;;;;;;34.00;18.75;;;;;;;11.76;62.90;96174.16;4997009;28;20034;-78
2022/10/21 09:26:37;;;;;;;35.85;18.00;;;;;;;11.56;62.79;96125.13;4993425;28;20034;-78
2022/10/21 09:29:33;;;;;;;35.13;17.92;;;;;;;11.76;62.28;96144.94;4997274;28;20052;-78
2022/10/21 09:32:20;;;;;;;32.63;17.23;;;;;;;11.52;62.04;96120.56;4985340;28;20147;-79
2022/10/21 09:34:46;;;;;;;29.05;18.13;;;;;;;11.80;62.79;96160.13;4995369;28;20044;-79
2022/10/21 09:37:26;;;;;;;29.20;17.63;;;;;;;11.68;61.11;96126.78;4991813;28;20121;-81
2022/10/21 09:40:19;;;;;;;29.02;16.27;;;;;;;11.04;61.71;96013.53;4997490;28;20038;-80
2022/10/21 09:42:48;;;;;;;33.92;17.23;;;;;;;12.07;62.07;96160.00;4975076;28;20052;-80
2022/10/21 09:45:29;;;;;;;32.08;16.90;;;;;;;12.08;60.94;96158.13;4997317;28;20041;-79
2022/10/21 09:47:58;;;;;;;36.08;17.88;;;;;;;11.69;61.22;96086.69;4981045;28;20964;-80
2022/10/21 09:50:24;;;;;;;30.40;16.13;;;;;;;12.59;60.38;96159.94;5001114;28;20120;-81
2022/10/21 09:53:22;;;;;;;39.20;16.92;;;;;;;14.04;57.37;96167.44;4998769;28;20684;-80
2022/10/21 09:55:51;;;;;;;26.77;15.35;;;;;;;15.47;53.53;96171.00;4979761;28;20050;-82
2022/10/21 09:58:25;;;;;;;22.25;14.38;;;;;;;16.75;49.76;96150.66;4980791;28;20053;-82
2022/10/21 10:00:50;;;;;;;27.50;12.93;;;;;;;17.74;45.70;96121.00;4999625;28;20041;-81
2022/10/21 10:03:36;;;;;;;22.13;13.85;;;;;;;18.83;42.43;96110.25;5001770;28;20148;-80
2022/10/21 10:06:04;;;;;;;21.75;12.88;;;;;;;19.59;40.46;96072.69;4997229;28;20488;-82
2022/10/21 10:08:54;;;;;;;19.65;12.43;;;;;;;21.24;38.76;96159.06;4994092;28;20904;-83
2022/10/21 10:11:20;;;;;;;21.58;12.10;;;;;;;20.96;37.13;96101.13;5002908;28;20030;-87
2022/10/21 10:13:52;;;;;;;22.60;13.10;;;;;;;21.83;35.50;96151.22;5029767;28;20108;-79
2022/10/21 10:16:26;;;;;;;;;;;;;;;22.10;35.96;96141.97;5030947;28;20064;-83
2022/10/21 10:19:10;;;;;;;23.05;14.27;;;;;;;22.53;35.52;96131.75;5023675;28;19917;-80
2022/10/21 10:21:36;;;;;;;25.27;13.00;;;;;;;22.54;34.88;96070.38;5014875;28;20077;-81
2022/10/21 10:24:04;;;;;;;22.27;13.82;;;;;;;22.21;34.60;96013.50;5013980;28;20109;-81
2022/10/21 10:26:32;;;;;;;20.08;13.23;;;;;;;22.84;33.84;96063.84;5011337;28;20046;-81
2022/10/21 10:29:13;;;;;;;19.60;12.48;;;;;;;22.60;33.87;96042.03;5001476;28;20040;-80
2022/10/21 10:31:45;;;;;;;17.23;11.87;;;;;;;22.81;33.81;96053.66;5011529;28;20040;-80
2022/10/21 10:34:19;;;;;;;27.30;12.95;;;;;;;22.95;34.12;96123.75;5012404;28;20268;-79
2022/10/21 10:36:47;;;;;;;18.05;12.35;;;;;;;22.98;34.25;96121.16;5007117;28;20151;-78
2022/10/21 10:39:25;;;;;;;18.33;12.27;;;;;;;22.41;34.67;96069.53;5007037;28;20042;-79
2022/10/21 10:41:51;;;;;;;19.10;12.38;;;;;;;22.49;34.42;96076.00;5029703;28;20041;-79
2022/10/21 10:44:30;;;;;;;19.27;12.52;;;;;;;22.77;33.92;96079.81;5011425;28;20033;-79
2022/10/21 10:46:58;;;;;;;25.45;12.57;;;;;;;21.79;34.54;96026.88;5020173;28;20783;-79
2022/10/21 10:49:25;;;;;;;22.70;12.73;;;;;;;22.24;34.45;96045.28;5015254;28;20581;-78
2022/10/21 10:52:09;;;;;;;17.83;10.45;;;;;;;22.70;33.92;96079.50;5018364;28;20033;-81
2022/10/21 10:54:36;;;;;;;19.00;12.15;;;;;;;22.67;34.01;96078.25;5015679;28;20065;-81
2022/10/21 10:57:19;;;;;;;24.77;11.57;;;;;;;22.39;34.12;96027.72;5021454;28;20043;-79
2022/10/21 10:59:55;;;;;;;18.20;10.30;;;;;;;22.13;34.07;95998.13;5018204;28;20163;-79
2022/10/21 11:02:51;;;;;;;16.75;10.30;;;;;;;22.69;33.53;96069.81;5036248;28;20056;-82
2022/10/21 11:05:35;;;;;;;15.85;10.27;;;;;;;22.23;34.49;96076.13;5023264;28;20515;-79
2022/10/21 11:08:37;;;;;;;19.05;11.43;;;;;;;21.75;33.92;95981.94;5020041;28;20048;-79
2022/10/21 11:11:10;;;;;;;23.02;11.77;;;;;;;22.45;34.60;96066.94;5019572;28;20304;-80
2022/10/21 11:13:38;;;;;;;18.15;10.80;;;;;;;22.31;33.99;96040.94;5022952;28;20057;-80
2022/10/21 11:16:23;;;;;;;18.42;9.80;;;;;;;22.25;34.22;96055.78;5011237;28;20601;-80
2022/10/21 11:19:10;;;;;;;19.92;11.25;;;;;;;21.77;35.13;96050.72;5000712;28;20716;-82
2022/10/21 11:21:50;;;;;;;21.63;11.23;;;;;;;21.61;34.47;96019.16;5033185;28;20055;-81
2022/10/21 11:24:18;;;;;;;18.50;11.13;;;;;;;22.22;34.45;96047.50;5037820;28;20044;-80
2022/10/21 11:26:54;;;;;;;19.98;11.75;;;;;;;21.81;35.07;96002.28;5022697;28;20051;-79
2022/10/21 11:29:39;;;;;;;21.08;11.20;;;;;;;21.78;35.57;96035.31;5021731;28;20051;-79
2022/10/21 11:32:33;;;;;;;20.65;11.15;;;;;;;22.18;34.21;96000.66;5032943;28;20041;-80
2022/10/21 11:35:05;;;;;;;18.17;10.15;;;;;;;22.56;33.61;96030.31;5018699;28;20048;-79
2022/10/21 11:37:53;;;;;;;20.65;10.63;;;;;;;22.26;32.71;95959.31;5030358;28;20036;-79